KHIB

Range Regional Airport

Hibbing, Minnesota, USA
METAR KHIB 211353Z AUTO 18005KT 10SM OVC100 M02/M07 A3002 RMK AO2 SLP188 T10221067
Observed Flight Rules
Oct-21 @ 13:53 UTC (an hour ago) Visual Flight Rules
Wind Visibility Clouds
180° at 5 knots 10 miles
  • Overcast at 10,000' AGL
Temperatures Readings
Current -2°C / 28°F
Dewpoint -7°C / 19°F
Humidity 69%
Altimeter 30.02" Hg
Pressure 1018.8 hPa
Elevation 412
METAR KHIB 211353Z AUTO 18005KT 10SM OVC100 M02/M07 A3002 RMK AO2 SLP188 T10221067
Observed Flight Rules
Oct-21 @ 13:53 UTC
(an hour ago)
VFR
Wind Visibility
180° at 5 knots 10 miles
Clouds
  • Overcast at 10,000' AGL
Temperature Dewpoint
-2°C / 28°F -7°C / 19°F
Humidity Altimeter Pressure
69% 30.02" Hg 1018.8 hPa